Time;durP1;ratioP1;P1;durP2;ratioP2;P2;SDS_P1;SDS_P2;PMS_P1;PMS_P2;Temp;Humidity;BMP_temperature;BMP_pressure;BME280_temperature;BME280_humidity;BME280_pressure;Samples;Min_cycle;Max_cycle;Signal;HPM_P1;HPM_P2
2022/09/13 00:00:37;;;;;;;9.50;5.00;;;;;;;11.25;99.82;98641.21;109066;1273;124689;-64
2022/09/13 00:03:04;;;;;;;11.80;6.40;;;;;;;11.22;99.85;98641.35;109409;1273;23221;-64
2022/09/13 00:05:31;;;;;;;7.60;5.30;;;;;;;11.22;99.93;98637.58;109381;1273;23316;-64
2022/09/13 00:07:58;;;;;;;10.80;5.60;;;;;;;11.22;100.00;98633.86;109303;1273;138052;-64
2022/09/13 00:10:25;;;;;;;;;;;;;;;11.23;99.98;98633.54;109427;1273;23255;-64
2022/09/13 00:12:52;;;;;;;8.60;6.60;;;;;;;11.23;100.00;98634.63;109148;1273;124858;-64
2022/09/13 00:15:19;;;;;;;8.20;6.00;;;;;;;11.25;100.00;98629.16;109354;1273;23228;-65
2022/09/13 00:17:46;;;;;;;10.40;6.30;;;;;;;11.27;100.00;98625.08;109320;1273;22459;-64
2022/09/13 00:20:12;;;;;;;9.40;6.10;;;;;;;11.29;100.00;98621.59;109281;1273;138723;-64
2022/09/13 00:22:39;;;;;;;9.20;6.40;;;;;;;11.31;100.00;98620.05;109397;1274;22673;-64
2022/09/13 00:25:06;;;;;;;;;;;;;;;11.30;100.00;98621.58;109337;1273;139263;-64
2022/09/13 00:27:35;;;;;;;9.00;7.10;;;;;;;11.27;100.00;98622.30;109366;1273;22424;-64
2022/09/13 00:30:05;;;;;;;9.90;7.10;;;;;;;11.23;100.00;98627.80;109429;1273;22592;-64
2022/09/13 00:32:35;;;;;;;11.00;8.00;;;;;;;11.21;100.00;98619.59;109055;1274;139100;-63
2022/09/13 00:35:02;;;;;;;;;;;;;;;11.20;100.00;98623.46;109482;1274;22500;-64
2022/09/13 00:37:29;;;;;;;11.30;8.00;;;;;;;11.20;100.00;98623.20;109330;1274;125851;-64
2022/09/13 00:39:56;;;;;;;18.00;10.40;;;;;;;11.19;100.00;98627.55;109413;1274;22443;-64
2022/09/13 00:42:26;;;;;;;;;;;;;;;11.18;100.00;98630.40;109394;1274;22495;-64
2022/09/13 00:45:01;;;;;;;19.00;11.90;;;;;;;11.16;100.00;98628.71;109427;1274;22640;-64
2022/09/13 00:47:54;;;;;;;14.10;9.40;;;;;;;11.16;100.00;98628.89;109456;1274;22580;-64
2022/09/13 00:50:31;;;;;;;14.70;9.90;;;;;;;11.16;100.00;98625.05;109315;1274;139471;-64
2022/09/13 00:53:00;;;;;;;12.20;9.50;;;;;;;11.18;100.00;98621.02;109435;1274;22503;-63
2022/09/13 00:55:30;;;;;;;11.90;7.60;;;;;;;11.21;100.00;98618.66;109364;1274;139351;-64
2022/09/13 00:58:00;;;;;;;9.60;7.80;;;;;;;11.23;100.00;98616.90;109218;1274;22453;-64
2022/09/13 01:00:27;;;;;;;10.10;8.20;;;;;;;11.24;100.00;98616.89;109388;1274;139027;-64
2022/09/13 01:02:57;;;;;;;;;;;;;;;11.24;100.00;98614.16;109443;1274;22483;-64
2022/09/13 01:05:26;;;;;;;13.60;8.60;;;;;;;11.24;100.00;98613.84;109212;1274;22428;-64
2022/09/13 01:07:54;;;;;;;10.00;7.20;;;;;;;11.23;100.00;98614.71;109274;1274;139801;-63
2022/09/13 01:10:22;;;;;;;8.20;7.10;;;;;;;11.23;100.00;98612.70;109416;1273;22465;-63
2022/09/13 01:12:54;;;;;;;7.30;6.20;;;;;;;11.24;100.00;98608.55;109299;1274;140193;-63
2022/09/13 01:15:21;;;;;;;8.50;6.60;;;;;;;11.24;100.00;98609.21;109242;1274;23282;-64
2022/09/13 01:17:48;;;;;;;10.80;6.40;;;;;;;11.22;100.00;98604.64;109491;1274;22473;-63
2022/09/13 01:20:15;;;;;;;;;;;;;;;11.25;100.00;98612.30;109291;1274;139146;-63
2022/09/13 01:22:45;;;;;;;8.80;6.40;;;;;;;11.26;100.00;98608.56;109390;1274;22554;-63
2022/09/13 01:25:30;;;;;;;8.40;6.70;;;;;;;11.26;100.00;98609.98;109359;1274;138984;-63
2022/09/13 01:28:11;;;;;;;10.80;6.70;;;;;;;11.28;100.00;98607.41;109373;1274;22364;-63
2022/09/13 01:31:19;;;;;;;9.20;6.70;;;;;;;11.30;100.00;98610.12;109181;1274;139583;-63
2022/09/13 01:34:01;;;;;;;8.00;6.30;;;;;;;11.31;100.00;98607.50;109334;1274;23559;-63
2022/09/13 01:37:05;;;;;;;12.90;6.70;;;;;;;11.32;100.00;98609.95;109254;1274;138979;-63
2022/09/13 01:39:47;;;;;;;13.10;6.50;;;;;;;11.33;100.00;98604.88;109346;1272;23222;-63
2022/09/13 01:42:36;;;;;;;7.00;6.10;;;;;;;11.34;100.00;98603.83;109445;1274;23322;-63
2022/09/13 01:45:12;;;;;;;6.60;5.90;;;;;;;11.36;100.00;98604.85;109540;1273;22440;-63
2022/09/13 01:47:48;;;;;;;6.70;5.80;;;;;;;11.38;100.00;98605.77;109435;1274;22478;-63
2022/09/13 01:50:22;;;;;;;8.80;6.80;;;;;;;11.38;100.00;98601.23;109273;1274;138315;-63
2022/09/13 01:53:24;;;;;;;9.20;6.10;;;;;;;11.40;100.00;98606.02;109412;1273;23395;-63
2022/09/13 01:56:03;;;;;;;9.20;6.70;;;;;;;11.40;100.00;98605.19;108880;1277;139424;-63
2022/09/13 01:59:04;;;;;;;8.20;6.10;;;;;;;11.42;100.00;98602.00;108739;1278;22455;-63
2022/09/13 02:01:34;;;;;;;7.00;6.10;;;;;;;11.44;100.00;98603.52;108105;1284;139032;-63
2022/09/13 02:04:07;;;;;;;7.70;6.00;;;;;;;11.47;100.00;98603.06;108216;1284;23775;-63
2022/09/13 02:06:39;;;;;;;7.40;6.30;;;;;;;11.49;100.00;98604.68;108207;1284;139625;-63
2022/09/13 02:09:10;;;;;;;8.00;6.30;;;;;;;11.52;100.00;98601.55;108167;1286;22426;-63
2022/09/13 02:11:37;;;;;;;6.70;5.80;;;;;;;11.54;100.00;98603.94;108196;1286;23358;-63
2022/09/13 02:14:11;;;;;;;7.70;5.90;;;;;;;11.55;100.00;98603.30;108298;1284;138524;-63
2022/09/13 02:16:38;;;;;;;7.00;5.70;;;;;;;11.57;100.00;98606.34;108342;1285;22587;-64
2022/09/13 02:19:13;;;;;;;8.00;5.90;;;;;;;11.58;100.00;98606.27;108151;1286;138808;-65
2022/09/13 02:21:43;;;;;;;9.40;6.30;;;;;;;11.62;100.00;98603.30;108325;1284;22537;-65
2022/09/13 02:24:12;;;;;;;9.80;7.20;;;;;;;11.65;100.00;98603.40;108244;1285;23532;-65
2022/09/13 02:26:39;;;;;;;8.40;6.70;;;;;;;11.67;100.00;98608.06;108160;1285;138283;-66
2022/09/13 02:29:07;;;;;;;;;;;;;;;11.70;100.00;98605.73;108339;1284;22579;-66
2022/09/13 02:31:35;;;;;;;9.40;6.50;;;;;;;11.73;100.00;98604.52;108083;1284;125855;-66
2022/09/13 02:34:05;;;;;;;9.50;6.40;;;;;;;11.73;100.00;98604.23;108476;1282;22470;-64
2022/09/13 02:36:34;;;;;;;10.30;8.00;;;;;;;11.75;100.00;98605.80;108556;1282;138575;-65
2022/09/13 02:39:02;;;;;;;10.20;7.30;;;;;;;11.77;100.00;98606.20;109186;1272;22492;-63
2022/09/13 02:41:55;;;;;;;8.30;7.20;;;;;;;11.78;100.00;98604.55;109452;1274;22514;-65
2022/09/13 02:44:42;;;;;;;9.80;6.80;;;;;;;11.80;100.00;98600.40;109329;1274;140077;-64
2022/09/13 02:47:24;;;;;;;7.30;6.50;;;;;;;11.81;100.00;98600.94;109291;1274;22457;-64
2022/09/13 02:50:19;;;;;;;7.30;6.30;;;;;;;11.82;100.00;98600.90;109348;1274;140178;-64
2022/09/13 02:52:51;;;;;;;7.20;5.60;;;;;;;11.84;100.00;98602.56;109339;1274;22586;-65
2022/09/13 02:55:49;;;;;;;7.80;6.40;;;;;;;11.85;100.00;98600.20;109225;1274;140584;-64
2022/09/13 02:58:41;;;;;;;7.20;6.10;;;;;;;11.86;100.00;98600.20;109435;1274;22424;-65
2022/09/13 03:01:08;;;;;;;6.40;5.80;;;;;;;11.86;100.00;98597.96;109284;1273;138593;-64
2022/09/13 03:03:35;;;;;;;6.50;5.40;;;;;;;11.88;100.00;98598.77;109387;1274;22571;-64
2022/09/13 03:06:02;;;;;;;6.20;4.80;;;;;;;11.89;100.00;98597.17;109479;1273;22450;-64
2022/09/13 03:08:29;;;;;;;5.80;5.10;;;;;;;11.89;100.00;98598.75;109366;1274;139081;-65
2022/09/13 03:11:13;;;;;;;6.70;4.50;;;;;;;11.89;100.00;98598.42;109460;1274;22467;-64
2022/09/13 03:13:52;;;;;;;5.60;4.60;;;;;;;11.89;100.00;98595.59;109249;1274;139695;-64
2022/09/13 03:16:41;;;;;;;4.30;3.90;;;;;;;11.90;100.00;98594.81;109406;1274;22494;-64
2022/09/13 03:19:22;;;;;;;4.60;3.80;;;;;;;11.91;100.00;98595.08;109229;1274;139592;-64
2022/09/13 03:22:13;;;;;;;5.40;4.20;;;;;;;11.91;100.00;98596.71;109342;1274;23238;-64
2022/09/13 03:24:51;;;;;;;5.30;4.30;;;;;;;11.92;100.00;98595.30;109210;1274;138368;-64
2022/09/13 03:27:37;;;;;;;4.60;4.20;;;;;;;11.94;100.00;98592.70;109279;1274;23556;-64
2022/09/13 03:30:08;;;;;;;6.90;4.20;;;;;;;11.95;100.00;98591.88;109478;1272;22782;-64
2022/09/13 03:32:44;;;;;;;5.10;4.50;;;;;;;11.96;100.00;98591.98;109230;1274;140209;-64
2022/09/13 03:35:48;;;;;;;10.00;4.40;;;;;;;11.94;100.00;98592.11;109276;1274;23123;-64
2022/09/13 03:38:17;;;;;;;5.50;4.30;;;;;;;11.95;100.00;98596.03;109224;1274;138537;-64
2022/09/13 03:40:49;;;;;;;5.00;4.50;;;;;;;11.94;100.00;98595.77;106301;1274;24057;-63
2022/09/13 03:43:22;;;;;;;6.20;4.80;;;;;;;11.93;100.00;98594.14;109253;1274;138549;-64
2022/09/13 03:45:52;;;;;;;5.10;4.60;;;;;;;11.93;100.00;98595.02;109407;1274;22471;-64
2022/09/13 03:48:19;;;;;;;6.90;4.70;;;;;;;11.93;100.00;98595.55;109449;1274;23579;-64
2022/09/13 03:50:45;;;;;;;;;;;;;;;11.94;100.00;98598.06;109274;1274;138562;-63
2022/09/13 03:53:14;;;;;;;5.70;5.00;;;;;;;11.92;100.00;98604.95;109467;1273;22464;-64
2022/09/13 03:55:41;;;;;;;5.50;4.70;;;;;;;11.90;100.00;98605.02;109407;1274;138477;-64
2022/09/13 03:58:14;;;;;;;5.70;5.00;;;;;;;11.89;100.00;98608.20;109316;1274;22579;-64
2022/09/13 04:00:41;;;;;;;7.20;5.00;;;;;;;11.87;100.00;98606.03;109377;1274;139104;-64
2022/09/13 04:03:08;;;;;;;6.00;5.10;;;;;;;11.86;100.00;98603.20;109467;1273;22569;-64
2022/09/13 04:05:34;;;;;;;7.40;5.90;;;;;;;11.84;100.00;98607.80;109286;1274;22637;-63
2022/09/13 04:08:05;;;;;;;6.60;5.30;;;;;;;11.83;100.00;98609.64;109356;1274;138097;-63
2022/09/13 04:10:32;;;;;;;8.90;6.10;;;;;;;11.81;100.00;98612.23;109266;1274;22458;-63
2022/09/13 04:12:59;;;;;;;12.50;7.20;;;;;;;11.79;100.00;98612.35;109353;1273;138425;-63
2022/09/13 04:15:26;;;;;;;8.80;6.80;;;;;;;11.76;100.00;98612.20;109485;1273;23637;-64
2022/09/13 04:17:53;;;;;;;9.60;6.80;;;;;;;11.74;100.00;98616.66;109410;1274;22456;-63
2022/09/13 04:20:20;;;;;;;;;;;;;;;11.74;100.00;98616.40;109268;1274;139170;-63
2022/09/13 04:22:51;;;;;;;8.80;7.70;;;;;;;11.72;100.00;98619.63;109471;1274;22485;-63
2022/09/13 04:25:19;;;;;;;9.90;7.70;;;;;;;11.69;100.00;98625.27;109370;1274;139181;-64
2022/09/13 04:27:46;;;;;;;11.00;7.80;;;;;;;11.67;100.00;98622.42;109479;1273;22618;-63
2022/09/13 04:30:12;;;;;;;13.50;8.20;;;;;;;11.65;100.00;98624.68;109475;1273;23389;-64
2022/09/13 04:32:42;;;;;;;13.80;8.30;;;;;;;11.62;100.00;98622.57;109371;1274;139900;-64
2022/09/13 04:35:09;;;;;;;10.90;8.10;;;;;;;11.61;100.00;98621.48;109434;1272;22466;-64
2022/09/13 04:37:37;;;;;;;13.80;8.60;;;;;;;11.61;100.00;98623.40;109238;1274;139550;-64
2022/09/13 04:40:06;;;;;;;11.90;8.40;;;;;;;11.61;100.00;98626.50;109343;1273;23819;-64
2022/09/13 04:42:33;;;;;;;12.40;8.10;;;;;;;11.62;100.00;98625.84;109095;1276;139638;-64
2022/09/13 04:45:00;;;;;;;13.80;8.70;;;;;;;11.63;100.00;98627.31;109258;1274;22475;-63
2022/09/13 04:47:26;;;;;;;;;;;;;;;11.64;100.00;98629.60;109394;1274;22607;-64
2022/09/13 04:49:54;;;;;;;13.00;10.20;;;;;;;11.64;100.00;98633.96;109115;1276;125777;-65
2022/09/13 04:52:20;;;;;;;21.60;10.30;;;;;;;11.61;100.00;98628.64;109179;1276;22459;-64
2022/09/13 04:54:47;;;;;;;21.30;10.50;;;;;;;11.59;100.00;98627.39;109104;1276;139760;-65
2022/09/13 04:57:15;;;;;;;12.90;10.00;;;;;;;11.59;100.00;98630.02;109218;1275;23279;-65
2022/09/13 04:59:42;;;;;;;14.10;9.90;;;;;;;11.61;100.00;98631.53;109414;1274;22473;-65
2022/09/13 05:02:09;;;;;;;17.60;10.50;;;;;;;11.62;100.00;98633.80;109110;1274;139088;-65
2022/09/13 05:04:36;;;;;;;17.70;10.30;;;;;;;11.62;100.00;98634.19;109419;1274;23129;-66
2022/09/13 05:07:03;;;;;;;;;;;;;;;11.59;100.00;98628.20;109187;1275;139040;-65
2022/09/13 05:09:30;;;;;;;14.40;10.10;;;;;;;11.55;100.00;98632.87;109307;1274;22495;-65
2022/09/13 05:11:57;;;;;;;18.10;11.30;;;;;;;11.51;100.00;98632.61;109261;1276;22559;-63
2022/09/13 05:14:23;;;;;;;;;;;;;;;11.47;100.00;98635.14;109356;1274;140346;-64
2022/09/13 05:16:50;;;;;;;15.10;10.70;;;;;;;11.45;100.00;98638.98;109518;1273;22595;-64
2022/09/13 05:19:17;;;;;;;;;;;;;;;11.42;100.00;98640.95;109391;1274;138783;-64
2022/09/13 05:21:44;;;;;;;10.90;8.70;;;;;;;11.40;100.00;98641.02;109462;1274;22461;-64
2022/09/13 05:24:11;;;;;;;12.90;9.40;;;;;;;11.38;100.00;98642.74;109360;1274;23217;-64
2022/09/13 05:26:37;;;;;;;19.80;12.00;;;;;;;11.36;100.00;98642.33;109339;1274;139249;-64
2022/09/13 05:29:04;;;;;;;21.70;11.60;;;;;;;11.34;100.00;98645.23;109313;1274;22677;-64
2022/09/13 05:31:36;;;;;;;16.50;10.80;;;;;;;11.30;100.00;98647.92;109339;1274;140136;-64
2022/09/13 05:34:06;;;;;;;20.20;12.70;;;;;;;11.27;100.00;98646.03;109440;1273;22487;-64
2022/09/13 05:36:33;;;;;;;19.50;11.50;;;;;;;11.24;100.00;98653.33;109270;1274;139702;-64
2022/09/13 05:38:59;;;;;;;16.70;11.00;;;;;;;11.22;100.00;98649.19;109423;1273;22434;-64
2022/09/13 05:41:46;;;;;;;26.30;13.30;;;;;;;11.21;100.00;98655.08;109390;1273;22273;-64
2022/09/13 05:44:13;;;;;;;17.60;12.90;;;;;;;11.21;100.00;98652.41;109362;1273;140500;-64
2022/09/13 05:46:41;;;;;;;20.80;11.70;;;;;;;11.19;100.00;98658.03;109359;1274;22284;-64
2022/09/13 05:49:08;;;;;;;19.10;11.80;;;;;;;11.18;100.00;98662.08;109323;1273;140720;-64
2022/09/13 05:51:35;;;;;;;;;;;;;;;11.16;100.00;98662.41;109468;1273;23660;-64
2022/09/13 05:54:02;;;;;;;16.00;11.00;;;;;;;11.15;100.00;98663.52;109322;1274;22261;-64
2022/09/13 05:56:29;;;;;;;19.30;12.80;;;;;;;11.13;100.00;98664.55;109282;1273;138878;-64
2022/09/13 05:58:55;;;;;;;14.50;11.40;;;;;;;11.13;100.00;98668.97;109448;1274;22222;-64
2022/09/13 06:01:26;;;;;;;;;;;;;;;11.12;100.00;98672.25;109357;1274;138853;-64
2022/09/13 06:03:54;;;;;;;12.80;10.40;;;;;;;11.09;100.00;98672.06;109359;1274;22456;-62
2022/09/13 06:06:21;;;;;;;13.60;10.40;;;;;;;11.07;100.00;98678.79;109300;1274;22476;-62
2022/09/13 06:08:51;;;;;;;16.30;11.00;;;;;;;11.07;100.00;98678.41;109364;1274;23333;-62
2022/09/13 06:11:18;;;;;;;18.90;12.20;;;;;;;11.07;100.00;98684.63;109339;1274;22530;-63
2022/09/13 06:13:44;;;;;;;;;;;;;;;11.06;100.00;98688.27;109318;1274;139413;-61
2022/09/13 06:16:12;;;;;;;17.70;10.50;;;;;;;11.06;100.00;98690.89;109350;1274;22437;-62
2022/09/13 06:18:39;;;;;;;13.60;10.60;;;;;;;11.02;100.00;98694.83;109303;1273;139110;-63
2022/09/13 06:21:16;;;;;;;14.90;10.50;;;;;;;10.96;100.00;98695.19;109404;1273;22404;-62
2022/09/13 06:23:44;;;;;;;15.30;11.00;;;;;;;10.90;100.00;98696.48;109356;1274;22463;-63
2022/09/13 06:26:13;;;;;;;9.80;8.70;;;;;;;10.89;100.00;98689.73;109175;1274;138774;-63
2022/09/13 06:28:40;;;;;;;12.20;9.00;;;;;;;10.90;100.00;98695.23;109324;1274;22905;-63
2022/09/13 06:31:10;;;;;;;11.20;8.40;;;;;;;10.91;100.00;98695.34;109181;1274;139785;-63
2022/09/13 06:33:38;;;;;;;11.10;8.90;;;;;;;10.92;100.00;98702.09;109332;1274;22620;-63
2022/09/13 06:36:07;;;;;;;14.60;10.20;;;;;;;10.92;100.00;98703.23;109338;1274;22462;-63
2022/09/13 06:38:34;;;;;;;10.70;9.60;;;;;;;10.92;100.00;98702.20;109210;1274;138973;-63
2022/09/13 06:41:01;;;;;;;;;;;;;;;10.91;100.00;98702.91;109449;1274;22477;-63
2022/09/13 06:43:28;;;;;;;14.10;10.00;;;;;;;10.90;100.00;98705.91;109234;1272;125111;-63
2022/09/13 06:46:08;;;;;;;13.20;9.80;;;;;;;10.89;100.00;98705.59;109431;1273;22499;-63
2022/09/13 06:48:37;;;;;;;11.20;8.90;;;;;;;10.86;100.00;98706.08;109238;1274;139152;-64
2022/09/13 06:51:07;;;;;;;16.70;10.60;;;;;;;10.83;100.00;98701.95;109488;1274;22517;-63
2022/09/13 06:53:34;;;;;;;13.60;10.20;;;;;;;10.82;100.00;98702.90;109421;1274;23328;-63
2022/09/13 06:56:08;;;;;;;16.50;10.10;;;;;;;10.81;100.00;98700.84;109116;1274;140542;-63
2022/09/13 06:58:35;;;;;;;15.20;11.00;;;;;;;10.84;100.00;98705.92;109404;1274;22645;-63
2022/09/13 07:01:11;;;;;;;28.00;12.50;;;;;;;10.85;100.00;98705.21;109302;1274;140702;-63
2022/09/13 07:03:39;;;;;;;17.70;10.20;;;;;;;10.87;100.00;98706.30;109400;1274;23507;-63
2022/09/13 07:06:11;;;;;;;13.80;10.40;;;;;;;10.89;100.00;98705.86;109354;1274;22544;-63
2022/09/13 07:08:39;;;;;;;11.60;9.90;;;;;;;10.94;100.00;98708.79;109139;1274;138817;-63
2022/09/13 07:11:06;;;;;;;14.30;10.80;;;;;;;10.98;100.00;98712.40;109275;1274;22508;-63
2022/09/13 07:13:32;;;;;;;13.70;10.30;;;;;;;11.02;100.00;98714.51;109211;1274;138849;-63
2022/09/13 07:16:04;;;;;;;13.30;9.90;;;;;;;11.05;100.00;98721.65;109260;1274;22444;-63
2022/09/13 07:18:31;;;;;;;11.50;10.30;;;;;;;11.08;100.00;98725.78;109187;1275;138598;-63
2022/09/13 07:21:00;;;;;;;;;;;;;;;11.10;100.00;98725.23;109274;1274;22505;-63
2022/09/13 07:23:27;;;;;;;12.80;10.20;;;;;;;11.08;100.00;98727.42;109264;1274;22471;-63
2022/09/13 07:25:54;;;;;;;13.30;9.60;;;;;;;11.05;100.00;98729.77;109193;1274;138484;-63
2022/09/13 07:28:21;;;;;;;12.60;9.70;;;;;;;11.04;100.00;98729.55;109273;1274;22547;-64
2022/09/13 07:30:51;;;;;;;14.20;10.20;;;;;;;11.04;100.00;98728.19;109210;1275;139766;-64
2022/09/13 07:33:18;;;;;;;;;;;;;;;11.04;100.00;98726.06;109315;1274;22539;-63
2022/09/13 07:35:45;;;;;;;18.10;11.30;;;;;;;11.02;100.00;98727.05;109352;1273;22508;-63
2022/09/13 07:38:11;;;;;;;;;;;;;;;10.98;100.00;98726.19;109149;1274;138716;-63
2022/09/13 07:40:38;;;;;;;16.10;11.10;;;;;;;10.96;100.00;98722.48;106599;1274;24397;-63
2022/09/13 07:43:05;;;;;;;;;;;;;;;10.96;100.00;98726.42;104871;1275;139515;-62
2022/09/13 07:45:33;;;;;;;12.50;10.60;;;;;;;10.98;100.00;98727.33;104950;1274;22568;-62
2022/09/13 07:51:00;;;;;;;12.00;10.10;;;;;;;11.01;100.00;98724.44;101884;1310;546720;-62
2022/09/13 07:53:27;;;;;;;13.60;11.20;;;;;;;11.01;100.00;98723.89;104175;1284;25068;-62
2022/09/13 07:56:05;;;;;;;14.50;11.40;;;;;;;11.05;100.00;98725.30;103880;1287;138107;-61
2022/09/13 07:58:34;;;;;;;15.30;12.00;;;;;;;11.08;100.00;98722.34;108146;1286;22599;-63
2022/09/13 08:01:17;;;;;;;11.70;10.30;;;;;;;11.11;100.00;98718.45;108031;1286;139786;-63
2022/09/13 08:03:49;;;;;;;14.00;11.10;;;;;;;11.16;100.00;98719.40;106972;1286;1561875;-63
2022/09/13 08:06:16;;;;;;;21.20;10.80;;;;;;;11.21;100.00;98717.63;108285;1285;23109;-62
2022/09/13 08:08:42;;;;;;;;;;;;;;;11.25;100.00;98715.20;108390;1286;138854;-63
2022/09/13 08:11:09;;;;;;;17.70;10.20;;;;;;;11.30;100.00;98712.88;108406;1286;24010;-63
2022/09/13 08:13:36;;;;;;;14.30;10.50;;;;;;;11.32;100.00;98710.63;107893;1286;138992;-63
2022/09/13 08:16:04;;;;;;;14.10;10.60;;;;;;;11.35;100.00;98707.84;108285;1286;22550;-63
2022/09/13 08:18:31;;;;;;;13.40;10.40;;;;;;;11.37;100.00;98708.48;108166;1285;139393;-62
2022/09/13 08:20:59;;;;;;;14.60;11.40;;;;;;;11.38;100.00;98707.27;108290;1286;22561;-63
2022/09/13 08:23:26;;;;;;;14.90;10.60;;;;;;;11.38;100.00;98712.63;108292;1286;22497;-62
2022/09/13 08:25:53;;;;;;;16.50;12.00;;;;;;;11.38;100.00;98713.06;108913;1278;138946;-62
2022/09/13 08:28:24;;;;;;;16.70;11.40;;;;;;;11.39;99.97;98711.73;109064;1279;22473;-63
2022/09/13 08:30:53;;;;;;;12.80;10.80;;;;;;;11.42;99.74;98709.25;108534;1281;140429;-62
2022/09/13 08:33:20;;;;;;;16.10;11.60;;;;;;;11.46;99.70;98714.03;108962;1280;22594;-62
2022/09/13 08:35:51;;;;;;;19.30;11.30;;;;;;;11.48;99.40;98708.73;109028;1279;23342;-63
2022/09/13 08:38:18;;;;;;;16.70;12.10;;;;;;;11.49;98.69;98709.38;108901;1280;139673;-63
2022/09/13 08:40:49;;;;;;;12.60;10.20;;;;;;;11.50;98.34;98709.59;109010;1279;22505;-62
2022/09/13 08:43:39;;;;;;;13.00;10.60;;;;;;;11.49;97.89;98711.67;108893;1279;139356;-63
2022/09/13 08:46:22;;;;;;;13.40;11.30;;;;;;;11.48;97.41;98717.73;108780;1280;22478;-63
2022/09/13 08:48:51;;;;;;;11.30;9.80;;;;;;;11.45;97.01;98717.20;108877;1279;139335;-62
2022/09/13 08:51:28;;;;;;;13.40;10.30;;;;;;;11.41;96.83;98713.67;109016;1279;22444;-63
2022/09/13 08:53:55;;;;;;;;;;;;;;;11.37;96.81;98709.08;109020;1279;22572;-62
2022/09/13 08:56:25;;;;;;;15.50;10.50;;;;;;;11.31;96.74;98708.45;108883;1279;124324;-62
2022/09/13 08:59:30;;;;;;;12.00;10.20;;;;;;;11.28;96.72;98706.18;108864;1280;22613;-62
2022/09/13 09:02:00;;;;;;;12.30;9.70;;;;;;;11.25;96.80;98704.13;108941;1279;138341;-62
2022/09/13 09:04:46;;;;;;;14.70;11.00;;;;;;;11.21;96.66;98701.88;109102;1278;22592;-63
2022/09/13 09:07:23;;;;;;;15.00;10.50;;;;;;;11.18;96.70;98705.86;108957;1280;138604;-63
2022/09/13 09:09:52;;;;;;;14.00;9.90;;;;;;;11.16;96.67;98702.33;108900;1278;22572;-64
2022/09/13 09:12:24;;;;;;;10.90;9.70;;;;;;;11.17;96.41;98704.55;108958;1278;22603;-63
2022/09/13 09:15:20;;;;;;;11.70;10.00;;;;;;;11.19;96.64;98708.70;108842;1280;139967;-64
2022/09/13 09:18:13;;;;;;;16.70;12.10;;;;;;;11.21;96.84;98707.81;108301;1284;22515;-64
2022/09/13 09:20:47;;;;;;;18.10;11.40;;;;;;;11.24;96.74;98703.60;108071;1283;139608;-64
2022/09/13 09:23:22;;;;;;;13.50;11.70;;;;;;;11.29;97.06;98703.23;108293;1283;23540;-63
2022/09/13 09:26:28;;;;;;;13.30;10.80;;;;;;;11.35;97.11;98706.48;108251;1284;138281;-64
2022/09/13 09:28:55;;;;;;;18.90;10.20;;;;;;;11.41;97.02;98700.04;108355;1283;23162;-63
2022/09/13 09:31:43;;;;;;;14.20;10.10;;;;;;;11.43;96.92;98699.52;108295;1283;138447;-63
2022/09/13 09:34:46;;;;;;;14.80;10.40;;;;;;;11.47;96.16;98700.44;108471;1283;22743;-63
2022/09/13 09:37:26;;;;;;;15.90;10.70;;;;;;;11.50;95.54;98698.30;107765;1289;139014;-63
2022/09/13 09:39:57;;;;;;;14.60;10.00;;;;;;;11.50;94.91;98697.16;106461;1289;24437;-62
2022/09/13 09:42:26;;;;;;;21.10;9.80;;;;;;;11.52;94.74;98705.16;103611;1291;24228;-61
2022/09/13 09:44:56;;;;;;;13.40;8.40;;;;;;;11.53;94.08;98706.41;103523;1290;138866;-62
2022/09/13 09:47:25;;;;;;;13.00;9.80;;;;;;;11.53;93.13;98707.83;107881;1288;22640;-63
2022/09/13 09:50:08;;;;;;;19.50;9.70;;;;;;;11.52;92.14;98701.72;107837;1287;138056;-63
2022/09/13 09:52:56;;;;;;;13.00;9.60;;;;;;;11.52;91.87;98703.14;107749;1289;22565;-63
2022/09/13 09:55:28;;;;;;;13.10;8.50;;;;;;;11.55;91.78;98701.90;108178;1283;140265;-64
2022/09/13 09:57:55;;;;;;;11.20;8.90;;;;;;;11.56;91.04;98703.30;108589;1281;22484;-63
2022/09/13 10:00:28;;;;;;;13.70;9.70;;;;;;;11.56;91.16;98701.83;108535;1283;22486;-62
2022/09/13 10:02:58;;;;;;;12.50;9.00;;;;;;;11.55;90.43;98700.75;108546;1282;22535;-62
2022/09/13 10:05:26;;;;;;;12.50;9.70;;;;;;;11.53;90.65;98708.81;108463;1283;22696;-63
2022/09/13 10:07:58;;;;;;;18.10;10.10;;;;;;;11.51;90.69;98702.98;108364;1283;139594;-63
2022/09/13 10:10:51;;;;;;;13.30;8.90;;;;;;;11.49;90.63;98707.25;108365;1283;23270;-63
2022/09/13 10:13:19;;;;;;;13.50;7.80;;;;;;;11.44;89.58;98717.10;108522;1277;138391;-62
2022/09/13 10:15:54;;;;;;;17.90;8.50;;;;;;;11.35;88.56;98712.04;108854;1278;22472;-62
2022/09/13 10:18:21;;;;;;;11.90;7.60;;;;;;;11.26;88.71;98714.27;109037;1279;23604;-63
2022/09/13 10:21:17;;;;;;;14.40;6.60;;;;;;;11.21;87.63;98717.20;108974;1279;22431;-62
2022/09/13 10:23:45;;;;;;;15.30;6.90;;;;;;;11.17;88.02;98719.94;109341;1274;22455;-62
2022/09/13 10:26:23;;;;;;;11.10;6.60;;;;;;;11.15;87.88;98720.60;109236;1274;138415;-62
2022/09/13 10:29:01;;;;;;;10.90;8.00;;;;;;;11.13;88.36;98720.83;109223;1276;22426;-62
2022/09/13 10:31:30;;;;;;;12.70;7.60;;;;;;;11.13;88.49;98721.70;109172;1274;137791;-62
2022/09/13 10:34:01;;;;;;;9.40;6.70;;;;;;;11.13;88.85;98724.58;109252;1274;22526;-63
2022/09/13 10:36:40;;;;;;;9.30;6.40;;;;;;;11.13;88.88;98724.69;109136;1274;22492;-62
2022/09/13 10:39:20;;;;;;;14.90;7.50;;;;;;;11.12;88.55;98728.02;109154;1277;22417;-63
2022/09/13 10:41:58;;;;;;;11.80;7.00;;;;;;;11.11;88.56;98731.86;109238;1276;22260;-63
2022/09/13 10:44:30;;;;;;;15.20;6.70;;;;;;;11.11;88.53;98729.67;109130;1276;139549;-62
2022/09/13 10:46:58;;;;;;;11.70;6.80;;;;;;;11.11;88.49;98726.46;109313;1275;22586;-62
2022/09/13 10:49:39;;;;;;;9.60;6.60;;;;;;;11.11;88.60;98725.86;109253;1274;139533;-63
2022/09/13 10:52:26;;;;;;;15.00;6.50;;;;;;;11.13;88.42;98722.35;109374;1274;22474;-63
2022/09/13 10:55:15;;;;;;;8.30;6.50;;;;;;;11.13;88.29;98717.77;109136;1276;139232;-63
2022/09/13 10:57:42;;;;;;;12.20;7.10;;;;;;;11.15;88.44;98721.04;109360;1274;22679;-63
2022/09/13 11:00:20;;;;;;;9.20;6.80;;;;;;;11.19;88.09;98720.80;109285;1273;22468;-62
2022/09/13 11:02:59;;;;;;;8.90;7.00;;;;;;;11.22;87.63;98721.93;109156;1274;138017;-62
2022/09/13 11:05:28;;;;;;;9.60;7.00;;;;;;;11.24;87.22;98722.70;109217;1277;23231;-62
2022/09/13 11:08:40;;;;;;;11.30;5.90;;;;;;;11.26;87.15;98725.38;109145;1274;138386;-62
2022/09/13 11:11:21;;;;;;;9.00;6.30;;;;;;;11.27;86.42;98724.83;108701;1281;22723;-62
2022/09/13 11:14:09;;;;;;;11.70;6.80;;;;;;;11.27;86.51;98724.77;108624;1280;138450;-62
2022/09/13 11:17:02;;;;;;;11.80;6.90;;;;;;;11.30;86.77;98724.88;108733;1281;23170;-62
2022/09/13 11:19:35;;;;;;;12.00;7.40;;;;;;;11.33;87.07;98724.98;108566;1281;138192;-63
2022/09/13 11:22:30;;;;;;;10.40;7.80;;;;;;;11.36;87.05;98721.30;108630;1281;22523;-62
2022/09/13 11:25:27;;;;;;;12.10;7.20;;;;;;;11.37;86.32;98721.36;108641;1280;139402;-62
2022/09/13 11:28:06;;;;;;;11.80;7.40;;;;;;;11.36;86.31;98723.16;108773;1280;23644;-63
2022/09/13 11:30:47;;;;;;;11.40;9.40;;;;;;;11.35;85.98;98724.52;108767;1280;138932;-62
2022/09/13 11:33:19;;;;;;;15.40;8.00;;;;;;;11.36;86.09;98724.03;108634;1281;22537;-62
2022/09/13 11:36:18;;;;;;;10.50;7.40;;;;;;;11.37;86.25;98722.83;108801;1280;22480;-63
2022/09/13 11:39:07;;;;;;;10.40;7.20;;;;;;;11.38;85.62;98722.88;108129;1286;139551;-63
2022/09/13 11:41:55;;;;;;;10.30;7.10;;;;;;;11.37;84.86;98719.95;108244;1286;22316;-62
2022/09/13 11:44:31;;;;;;;;;;;;;;;11.38;85.06;98719.23;107987;1286;139054;-63